This is the latest recevied weather packets stored in our database for station/object W2IRT. If no packets are shown the sender has not sent any weather packets the latest 1 day(s).
| Time | Temp. | Humidity | Pressure | Rain* | Wind** | Luminosity | Snow |
|---|---|---|---|---|---|---|---|
| 1778085316 | 18.89° C | 79% | 1007.8 hPa | 0.25 mm | - | - | - |
| 1778084716 | 19.44° C | 77% | 1007.9 hPa | 0 mm | - | - | - |
| 1778084416 | 19.44° C | 76% | 1008 hPa | 0 mm | - | - | - |
| 1778083816 | 20° C | 72% | 1008.2 hPa | 0 mm | - | - | - |
| 1778082916 | 20.56° C | 69% | 1008.5 hPa | 0 mm | - | - | - |
| 1778082616 | 20.56° C | 68% | 1008.5 hPa | 0 mm | - | - | - |
| 1778082316 | 21.11° C | 69% | 1008.3 hPa | 0 mm | - | - | - |
| 1778082016 | 21.11° C | 69% | 1008.2 hPa | 0 mm | - | - | - |
| 1778081716 | 21.11° C | 67% | 1008 hPa | 0 mm | - | - | - |
| 1778081116 | 21.11° C | 67% | 1008.2 hPa | 0 mm | - | - | - |
| 1778080816 | 21.11° C | 65% | 1008.2 hPa | 0 mm | - | - | - |
| 1778079916 | 21.11° C | 61% | 1008.6 hPa | 0 mm | - | - | - |
| 1778077516 | 21.67° C | 62% | 1008.2 hPa | 0 mm | - | - | - |
| 1778076916 | 21.11° C | 61% | 1008.3 hPa | 0 mm | - | - | - |
| 1778075716 | 21.11° C | 62% | 1008.6 hPa | 0 mm | - | - | - |
| 1778075431 | 21.11° C | 63% | 1008.5 hPa | 0 mm | - | - | - |
| 1778069115 | 20° C | 67% | 1008.7 hPa | 0 mm | - | - | - |
| 1778068515 | 20° C | 67% | 1008.8 hPa | 0 mm | - | - | - |
| 1778068215 | 20° C | 67% | 1008.9 hPa | 0 mm | - | - | - |
| 1778066715 | 19.44° C | 69% | 1008.8 hPa | 0 mm | - | - | - |
| 1778066415 | 19.44° C | 69% | 1008.8 hPa | 0 mm | - | - | - |
| 1778065515 | 19.44° C | 70% | 1008.7 hPa | 0 mm | - | - | - |
| 1778065215 | 18.89° C | 70% | 1008.6 hPa | 0 mm | - | - | - |
| 1778064915 | 18.89° C | 70% | 1008.5 hPa | 0 mm | - | - | - |
| 1778064330 | 18.89° C | 70% | 1008.5 hPa | 0 mm | - | - | - |
* Rain latest hour (hover to see other rain measurements)
** Current wind speed in m/s (hover to see current wind gust speed)